createdAt,value
2023-02-06T00:02:05.447Z,81.75
2023-02-06T00:04:34.595Z,81.76
2023-02-06T00:07:03.484Z,81.88
2023-02-06T00:09:32.486Z,82.35
2023-02-06T00:12:01.256Z,82.36
2023-02-06T00:14:30.253Z,82.38
2023-02-06T00:16:59.042Z,81.74
2023-02-06T00:19:27.863Z,81.96
2023-02-06T00:21:56.698Z,81.99
2023-02-06T00:24:25.496Z,81.90
2023-02-06T00:26:54.330Z,81.80
2023-02-06T00:29:23.196Z,82.30
2023-02-06T00:31:52.019Z,82.02
2023-02-06T00:34:20.809Z,82.28
2023-02-06T00:36:49.655Z,82.37
2023-02-06T00:39:19.538Z,81.95
2023-02-06T00:41:48.409Z,82.40
2023-02-06T00:44:17.182Z,81.94
2023-02-06T00:46:45.945Z,82.12
2023-02-06T00:49:14.825Z,81.97
2023-02-06T00:51:43.845Z,82.16
2023-02-06T00:54:12.672Z,82.24
2023-02-06T00:56:43.411Z,82.32
2023-02-06T00:59:12.169Z,82.11
2023-02-06T01:01:41.991Z,82.41
2023-02-06T01:04:11.009Z,81.90
2023-02-06T01:06:40.053Z,81.89
2023-02-06T01:09:09.032Z,82.24
2023-02-06T01:11:37.890Z,81.98
2023-02-06T01:14:06.708Z,82.22
2023-02-06T01:16:35.617Z,82.54
2023-02-06T01:19:04.474Z,82.66
2023-02-06T01:21:34.606Z,82.70
2023-02-06T01:24:03.944Z,82.61
2023-02-06T01:26:32.741Z,82.41
2023-02-06T01:29:03.574Z,82.36
2023-02-06T01:31:32.819Z,82.08
2023-02-06T01:34:01.924Z,82.47
2023-02-06T01:36:30.916Z,82.76
2023-02-06T01:38:59.839Z,82.82
2023-02-06T01:41:28.795Z,82.74
2023-02-06T01:44:13.147Z,82.67
2023-02-06T01:46:44.484Z,82.72
2023-02-06T01:49:20.262Z,82.40
2023-02-06T01:51:52.309Z,82.57
2023-02-06T01:54:22.060Z,82.21
2023-02-06T01:56:58.621Z,82.47
2023-02-06T01:59:27.907Z,82.71
2023-02-06T02:01:57.643Z,82.77
2023-02-06T02:04:32.031Z,82.88
2023-02-06T02:07:32.910Z,82.75
2023-02-06T02:10:02.029Z,82.80
2023-02-06T02:12:32.165Z,82.46
2023-02-06T02:15:01.196Z,82.25
2023-02-06T02:17:52.761Z,82.55
2023-02-06T02:20:27.324Z,82.75
2023-02-06T02:23:22.324Z,82.67
2023-02-06T02:26:22.497Z,82.74
2023-02-06T02:29:09.534Z,82.77
2023-02-06T02:32:13.462Z,82.84
2023-02-06T02:35:06.409Z,83.08
2023-02-06T02:37:50.466Z,83.24
2023-02-06T02:40:29.190Z,83.10
2023-02-06T02:43:18.146Z,82.93
2023-02-06T02:45:56.770Z,83.15
2023-02-06T02:48:30.799Z,83.14
2023-02-06T02:51:00.895Z,82.93
2023-02-06T02:53:29.835Z,82.97
2023-02-06T02:56:00.550Z,82.84
2023-02-06T02:58:36.144Z,83.20
2023-02-06T03:01:10.098Z,83.23
2023-02-06T03:03:42.927Z,83.10
2023-02-06T03:06:33.398Z,83.30
2023-02-06T03:09:17.364Z,83.37
2023-02-06T03:12:10.090Z,83.48
2023-02-06T03:14:56.830Z,83.22
2023-02-06T03:17:57.943Z,83.63
2023-02-06T03:20:27.446Z,84.04
2023-02-06T03:22:58.161Z,84.00
2023-02-06T03:25:34.506Z,83.32
2023-02-06T03:28:08.992Z,83.27
2023-02-06T03:30:42.340Z,82.92
2023-02-06T03:33:14.429Z,83.42
2023-02-06T03:35:43.916Z,83.98
2023-02-06T03:38:13.789Z,84.90
2023-02-06T03:40:47.453Z,83.90
2023-02-06T03:43:19.444Z,83.34
2023-02-06T03:45:52.702Z,82.41
2023-02-06T03:48:31.547Z,82.33
2023-02-06T03:51:04.110Z,83.23
2023-02-06T03:53:36.569Z,83.69
2023-02-06T03:56:26.080Z,82.91
2023-02-06T03:58:54.941Z,82.11
2023-02-06T04:01:24.874Z,81.82
2023-02-06T04:03:54.488Z,81.26
2023-02-06T04:06:23.457Z,81.16
2023-02-06T04:08:52.358Z,82.13
2023-02-06T04:11:21.168Z,82.62
2023-02-06T04:13:50.022Z,81.26
2023-02-06T04:16:18.935Z,81.28
2023-02-06T04:18:47.824Z,81.52
2023-02-06T04:21:16.626Z,82.04
2023-02-06T04:23:45.576Z,83.13
2023-02-06T04:26:14.419Z,83.33
2023-02-06T04:28:43.185Z,84.06
2023-02-06T04:31:12.025Z,83.43
2023-02-06T04:33:40.897Z,83.09
2023-02-06T04:36:09.983Z,81.41
2023-02-06T04:38:38.713Z,81.62
2023-02-06T04:41:08.742Z,81.64
2023-02-06T04:43:37.563Z,82.78
2023-02-06T04:46:07.564Z,82.70
2023-02-06T04:48:37.752Z,81.28
2023-02-06T04:51:06.822Z,81.09
2023-02-06T04:53:35.737Z,81.19
2023-02-06T04:56:06.611Z,80.96
2023-02-06T04:58:35.832Z,80.83
2023-02-06T05:01:05.399Z,81.16
2023-02-06T05:03:34.681Z,81.15
2023-02-06T05:06:05.063Z,81.96
2023-02-06T05:08:33.904Z,80.75
2023-02-06T05:11:02.760Z,80.12
2023-02-06T05:13:31.903Z,81.82
2023-02-06T05:16:15.565Z,82.25
2023-02-06T05:18:45.732Z,81.92
2023-02-06T05:21:15.555Z,82.00
2023-02-06T05:23:44.412Z,80.21
2023-02-06T05:26:13.500Z,80.60
2023-02-06T05:28:42.488Z,82.26
2023-02-06T05:31:11.889Z,83.44
2023-02-06T05:33:40.741Z,81.77
2023-02-06T05:36:09.938Z,79.72
2023-02-06T05:38:38.757Z,78.28
2023-02-06T05:41:07.831Z,76.95
2023-02-06T05:43:36.997Z,76.14
2023-02-06T05:46:05.922Z,76.12
2023-02-06T05:48:35.527Z,76.52
2023-02-06T05:51:04.541Z,77.02
2023-02-06T05:53:33.511Z,77.31
2023-02-06T05:56:02.428Z,77.82
2023-02-06T05:58:31.553Z,77.62
2023-02-06T06:01:01.168Z,76.33
2023-02-06T06:03:33.125Z,76.86
2023-02-06T06:06:02.167Z,76.89
2023-02-06T06:08:31.190Z,78.83
2023-02-06T06:11:02.142Z,80.23
2023-02-06T06:13:31.378Z,81.33
2023-02-06T06:16:00.367Z,82.14
2023-02-06T06:18:29.249Z,81.08
2023-02-06T06:20:58.055Z,82.56
2023-02-06T06:23:26.841Z,83.68
2023-02-06T06:25:55.630Z,84.18
2023-02-06T06:28:24.479Z,83.11
2023-02-06T06:31:01.667Z,81.66
2023-02-06T06:33:30.775Z,82.37
2023-02-06T06:35:59.643Z,83.07
2023-02-06T06:38:28.432Z,83.19
2023-02-06T06:40:57.233Z,83.21
2023-02-06T06:43:26.128Z,84.06
2023-02-06T06:45:54.944Z,84.18
2023-02-06T06:48:24.016Z,84.49
2023-02-06T06:50:53.226Z,84.91
2023-02-06T06:53:22.200Z,84.83
2023-02-06T06:55:50.993Z,84.24
2023-02-06T06:58:19.853Z,84.41
2023-02-06T07:00:49.571Z,85.10
2023-02-06T07:03:18.584Z,85.44
2023-02-06T07:05:47.904Z,85.38
2023-02-06T07:08:16.744Z,84.97
2023-02-06T07:10:45.525Z,85.34
2023-02-06T07:13:16.146Z,85.04
2023-02-06T07:15:45.016Z,84.04
2023-02-06T07:18:13.975Z,84.03
2023-02-06T07:20:42.787Z,84.26
2023-02-06T07:23:11.687Z,84.34
2023-02-06T07:25:40.565Z,84.17
2023-02-06T07:28:09.680Z,84.33
2023-02-06T07:30:38.496Z,84.67
2023-02-06T07:33:07.886Z,84.52
2023-02-06T07:35:37.027Z,84.53
2023-02-06T07:38:06.073Z,84.32
2023-02-06T07:40:44.574Z,84.09
2023-02-06T07:43:15.086Z,83.78
2023-02-06T07:45:43.999Z,83.99
2023-02-06T07:48:12.917Z,84.55
2023-02-06T07:50:41.699Z,84.52
2023-02-06T07:53:10.502Z,85.04
2023-02-06T07:55:39.449Z,84.77
2023-02-06T07:58:08.307Z,84.39
2023-02-06T08:00:37.650Z,84.25
2023-02-06T08:03:07.899Z,84.94
2023-02-06T08:05:39.880Z,84.59
2023-02-06T08:08:10.385Z,84.71
2023-02-06T08:10:40.555Z,84.62
2023-02-06T08:13:09.588Z,84.97
2023-02-06T08:15:38.604Z,84.85
2023-02-06T08:18:07.741Z,84.86
2023-02-06T08:20:36.946Z,84.73
2023-02-06T08:23:05.869Z,84.56
2023-02-06T08:25:34.984Z,84.36
2023-02-06T08:28:04.407Z,84.34
2023-02-06T08:30:35.059Z,84.32
2023-02-06T08:33:04.061Z,84.34
2023-02-06T08:35:34.352Z,83.78
2023-02-06T08:38:03.414Z,84.22
2023-02-06T08:40:33.082Z,83.90
2023-02-06T08:43:02.003Z,83.79
2023-02-06T08:45:30.828Z,83.81
2023-02-06T08:47:59.701Z,83.64
2023-02-06T08:50:28.586Z,83.41
2023-02-06T08:52:57.562Z,83.38
2023-02-06T08:55:27.382Z,83.38
2023-02-06T08:57:56.282Z,83.05
2023-02-06T09:00:25.920Z,83.05
2023-02-06T09:02:55.733Z,82.34
2023-02-06T09:05:24.949Z,82.40
2023-02-06T09:07:53.874Z,82.68
2023-02-06T09:10:27.789Z,82.56
2023-02-06T09:12:58.379Z,82.37
2023-02-06T09:15:27.356Z,81.96
2023-02-06T09:17:56.308Z,82.33
2023-02-06T09:20:27.284Z,82.14
2023-02-06T09:25:25.098Z,81.62
2023-02-06T09:27:55.147Z,81.94
2023-02-06T09:30:25.249Z,81.71
2023-02-06T09:32:54.155Z,81.86
2023-02-06T09:35:23.119Z,81.83
2023-02-06T09:37:52.144Z,81.64
2023-02-06T09:40:27.594Z,81.98
2023-02-06T09:42:57.754Z,81.73
2023-02-06T09:45:30.167Z,81.84
2023-02-06T09:48:15.563Z,81.88
2023-02-06T09:50:52.204Z,81.59
2023-02-06T09:53:37.738Z,81.82
2023-02-06T09:56:33.021Z,81.98
2023-02-06T09:59:19.834Z,81.81
2023-02-06T10:02:05.723Z,81.67
2023-02-06T10:04:48.991Z,81.86
2023-02-06T10:07:42.428Z,81.63
2023-02-06T10:10:18.411Z,81.34
2023-02-06T10:12:57.908Z,81.59
2023-02-06T10:15:35.325Z,81.33
2023-02-06T10:18:12.425Z,81.64
2023-02-06T10:21:00.734Z,81.47
2023-02-06T10:23:47.384Z,81.11
2023-02-06T10:26:18.771Z,81.05
2023-02-06T10:28:56.594Z,81.11
2023-02-06T10:31:25.498Z,81.11
2023-02-06T10:34:12.793Z,80.88
2023-02-06T10:37:11.085Z,81.12
2023-02-06T10:40:19.991Z,80.73
2023-02-06T10:43:09.039Z,80.54
2023-02-06T10:46:04.453Z,80.72
2023-02-06T10:48:48.244Z,80.81
2023-02-06T10:51:25.891Z,80.76
2023-02-06T10:54:01.665Z,81.12
2023-02-06T10:56:36.581Z,81.10
2023-02-06T10:59:32.302Z,81.08
2023-02-06T11:02:12.590Z,81.23
2023-02-06T11:05:05.240Z,81.40
2023-02-06T11:07:42.120Z,81.43
2023-02-06T11:10:23.152Z,80.93
2023-02-06T11:12:55.217Z,81.07
2023-02-06T11:15:34.648Z,81.11
2023-02-06T11:18:06.952Z,80.73
2023-02-06T11:20:42.435Z,80.70
2023-02-06T11:23:22.667Z,80.51
2023-02-06T11:26:16.214Z,80.39
2023-02-06T11:28:57.212Z,80.27
2023-02-06T11:31:44.280Z,80.65
2023-02-06T11:34:33.092Z,80.75
2023-02-06T11:37:04.962Z,81.02
2023-02-06T11:39:39.392Z,80.61
2023-02-06T11:42:23.337Z,80.82
2023-02-06T11:44:53.677Z,80.84
2023-02-06T11:47:38.042Z,80.73
2023-02-06T11:50:21.000Z,80.93
2023-02-06T11:52:50.063Z,80.57
2023-02-06T11:55:22.509Z,80.99
2023-02-06T11:58:14.471Z,80.97
2023-02-06T12:01:03.353Z,81.01
2023-02-06T12:03:40.385Z,81.17
2023-02-06T12:06:16.457Z,80.82
2023-02-06T12:08:48.326Z,81.31
2023-02-06T12:11:27.468Z,81.13
2023-02-06T12:14:16.879Z,80.81
2023-02-06T12:16:47.991Z,81.27
2023-02-06T12:19:22.241Z,80.95
2023-02-06T12:21:59.159Z,81.41
2023-02-06T12:24:32.897Z,81.33
2023-02-06T12:27:16.187Z,81.08
2023-02-06T12:30:07.035Z,81.30
2023-02-06T12:32:43.617Z,81.24
2023-02-06T12:35:15.513Z,81.38
2023-02-06T12:37:55.894Z,81.18
2023-02-06T12:40:44.867Z,80.94
2023-02-06T12:43:19.148Z,81.32
2023-02-06T12:46:16.652Z,81.36
2023-02-06T12:49:03.398Z,81.26
2023-02-06T12:51:42.350Z,81.09
2023-02-06T12:54:17.446Z,81.05
2023-02-06T12:56:50.855Z,81.21
2023-02-06T12:59:57.904Z,81.45
2023-02-06T13:02:50.214Z,81.42
2023-02-06T13:05:31.542Z,81.17
2023-02-06T13:08:10.606Z,81.26
2023-02-06T13:10:40.893Z,81.24
2023-02-06T13:13:27.791Z,81.04
2023-02-06T13:15:58.359Z,81.13
2023-02-06T13:18:42.572Z,81.34
2023-02-06T13:21:30.254Z,81.44
2023-02-06T13:24:04.951Z,81.33
2023-02-06T13:26:57.145Z,81.16
2023-02-06T13:29:40.420Z,81.38
2023-02-06T13:32:12.820Z,81.22
2023-02-06T13:34:47.663Z,81.17
2023-02-06T13:37:28.276Z,81.48
2023-02-06T13:40:21.721Z,80.98
2023-02-06T13:43:11.752Z,81.40
2023-02-06T13:45:57.796Z,81.08
2023-02-06T13:49:04.881Z,81.17
2023-02-06T13:52:04.284Z,81.16
2023-02-06T13:55:08.282Z,80.98
2023-02-06T13:57:45.749Z,80.84
2023-02-06T14:00:26.264Z,81.50
2023-02-06T14:03:32.137Z,81.23
2023-02-06T14:06:25.102Z,81.30
2023-02-06T14:09:03.075Z,81.24
2023-02-06T14:12:11.135Z,81.12
2023-02-06T14:15:13.025Z,81.08
2023-02-06T14:18:07.721Z,81.43
2023-02-06T14:20:50.473Z,81.14
2023-02-06T14:23:33.369Z,81.10
2023-02-06T14:26:17.349Z,81.57
2023-02-06T14:29:03.919Z,81.67
2023-02-06T14:32:17.438Z,81.35
2023-02-06T14:35:20.152Z,81.68
2023-02-06T14:38:21.029Z,81.77
2023-02-06T14:40:56.150Z,81.50
2023-02-06T14:43:29.185Z,81.44
2023-02-06T14:46:07.608Z,81.25
2023-02-06T14:48:40.715Z,81.63
2023-02-06T14:51:29.718Z,81.23
2023-02-06T14:54:04.552Z,81.39
2023-02-06T14:56:39.229Z,81.10
2023-02-06T14:59:13.956Z,81.05
2023-02-06T15:01:50.054Z,81.24
2023-02-06T15:04:25.058Z,81.48
2023-02-06T15:06:58.452Z,81.42
2023-02-06T15:09:36.331Z,81.31
2023-02-06T15:12:19.113Z,81.40
2023-02-06T15:15:10.852Z,81.24
2023-02-06T15:17:40.380Z,81.67
2023-02-06T15:20:24.554Z,81.26
2023-02-06T15:23:04.969Z,81.56
2023-02-06T15:25:49.406Z,81.24
2023-02-06T15:28:21.085Z,81.38
2023-02-06T15:31:01.173Z,81.60
2023-02-06T15:33:33.772Z,81.24
2023-02-06T15:36:04.941Z,81.34
2023-02-06T15:38:34.875Z,81.53
2023-02-06T15:41:08.042Z,81.16
2023-02-06T15:43:37.359Z,81.16
2023-02-06T15:46:07.063Z,81.55
2023-02-06T15:48:43.823Z,81.56
2023-02-06T15:51:23.874Z,81.34
2023-02-06T15:54:06.624Z,81.02
2023-02-06T15:56:40.799Z,81.52
2023-02-06T15:59:22.583Z,81.10
2023-02-06T16:01:55.201Z,81.11
2023-02-06T16:04:37.781Z,80.87
2023-02-06T16:07:17.775Z,80.96
2023-02-06T16:10:04.596Z,81.10
2023-02-06T16:13:04.955Z,81.07
2023-02-06T16:15:37.152Z,81.15
2023-02-06T16:18:24.514Z,81.22
2023-02-06T16:21:11.549Z,81.13
2023-02-06T16:23:53.918Z,80.78
2023-02-06T16:26:28.446Z,81.25
2023-02-06T16:29:16.831Z,80.89
2023-02-06T16:31:46.106Z,81.34
2023-02-06T16:34:39.483Z,81.18
2023-02-06T16:37:34.583Z,81.01
2023-02-06T16:40:03.379Z,81.14
2023-02-06T16:42:36.355Z,81.13
2023-02-06T16:45:19.500Z,81.39
2023-02-06T16:47:48.308Z,81.17
2023-02-06T16:50:17.532Z,81.10
2023-02-06T16:52:57.850Z,81.20
2023-02-06T16:55:29.424Z,81.07
2023-02-06T16:58:01.193Z,81.46
2023-02-06T17:00:33.303Z,81.12
2023-02-06T17:03:02.334Z,81.35
2023-02-06T17:05:32.080Z,81.12
2023-02-06T17:08:02.721Z,81.16
2023-02-06T17:10:31.412Z,81.13
2023-02-06T17:13:00.325Z,81.28
2023-02-06T17:15:29.780Z,80.87
2023-02-06T17:17:58.579Z,81.10
2023-02-06T17:20:38.134Z,80.77
2023-02-06T17:23:07.646Z,80.96
2023-02-06T17:25:36.680Z,81.19
2023-02-06T17:28:10.541Z,81.03
2023-02-06T17:30:39.970Z,80.81
2023-02-06T17:33:09.275Z,80.81
2023-02-06T17:35:38.917Z,80.96
2023-02-06T17:38:09.793Z,81.09
2023-02-06T17:40:41.389Z,80.78
2023-02-06T17:43:10.652Z,80.91
2023-02-06T17:45:40.192Z,81.11
2023-02-06T17:48:09.340Z,81.11
2023-02-06T17:50:41.268Z,80.75
2023-02-06T17:53:14.518Z,80.93
2023-02-06T17:55:45.614Z,80.85
2023-02-06T17:58:14.473Z,81.00
2023-02-06T18:00:44.125Z,81.08
2023-02-06T18:03:17.797Z,81.23
2023-02-06T18:05:47.780Z,81.07
2023-02-06T18:08:18.899Z,81.29
2023-02-06T18:10:47.726Z,81.00
2023-02-06T18:13:16.518Z,80.83
2023-02-06T18:15:54.006Z,80.83
2023-02-06T18:18:24.860Z,81.14
2023-02-06T18:20:53.742Z,81.05
2023-02-06T18:23:22.585Z,81.04
2023-02-06T18:25:51.486Z,80.90
2023-02-06T18:28:20.549Z,80.50
2023-02-06T18:30:49.566Z,80.58
2023-02-06T18:33:18.434Z,80.96
2023-02-06T18:35:51.176Z,80.92
2023-02-06T18:38:20.166Z,80.93
2023-02-06T18:40:48.943Z,80.59
2023-02-06T18:43:17.792Z,80.70
2023-02-06T18:45:46.583Z,80.72
2023-02-06T18:48:15.407Z,80.60
2023-02-06T18:50:44.233Z,81.02
2023-02-06T18:53:13.195Z,80.78
2023-02-06T18:55:42.276Z,80.46
2023-02-06T18:58:11.841Z,80.80
2023-02-06T19:00:42.946Z,80.54
2023-02-06T19:03:12.418Z,80.48
2023-02-06T19:05:41.203Z,80.52
2023-02-06T19:08:10.034Z,80.66
2023-02-06T19:10:41.005Z,80.53
2023-02-06T19:13:09.795Z,80.69
2023-02-06T19:15:38.850Z,80.43
2023-02-06T19:18:08.471Z,80.39
2023-02-06T19:20:37.456Z,80.61
2023-02-06T19:23:06.380Z,80.47
2023-02-06T19:25:35.222Z,80.54
2023-02-06T19:28:04.032Z,80.22
2023-02-06T19:30:33.089Z,80.57
2023-02-06T19:33:01.932Z,80.43
2023-02-06T19:35:30.790Z,80.74
2023-02-06T19:38:01.364Z,80.42
2023-02-06T19:40:30.416Z,80.54
2023-02-06T19:42:59.200Z,80.56
2023-02-06T19:45:28.211Z,80.20
2023-02-06T19:47:57.697Z,80.21
2023-02-06T19:50:26.669Z,80.30
2023-02-06T19:52:55.442Z,80.60
2023-02-06T19:55:24.285Z,80.59
2023-02-06T19:57:53.186Z,80.63
2023-02-06T20:00:22.679Z,80.62
2023-02-06T20:02:52.057Z,80.42
2023-02-06T20:05:27.242Z,80.58
2023-02-06T20:07:56.283Z,80.42
2023-02-06T20:10:25.633Z,80.46
2023-02-06T20:12:55.419Z,80.09
2023-02-06T20:15:24.214Z,80.68
2023-02-06T20:17:54.474Z,80.30
2023-02-06T20:20:23.322Z,80.55
2023-02-06T20:22:52.595Z,80.55
2023-02-06T20:25:22.065Z,80.45
2023-02-06T20:27:50.860Z,80.56
2023-02-06T20:30:20.357Z,80.53
2023-02-06T20:32:49.161Z,80.09
2023-02-06T20:35:18.066Z,80.58
2023-02-06T20:37:46.857Z,80.15
2023-02-06T20:40:15.679Z,80.21
2023-02-06T20:42:45.103Z,80.26
2023-02-06T20:45:14.034Z,80.02
2023-02-06T20:47:43.193Z,80.24
2023-02-06T20:50:12.058Z,79.94
2023-02-06T20:52:41.269Z,80.38
2023-02-06T20:55:10.606Z,80.33
2023-02-06T20:57:39.488Z,80.30
2023-02-06T21:00:10.040Z,80.19
2023-02-06T21:02:39.261Z,80.00
2023-02-06T21:05:08.517Z,80.42
2023-02-06T21:07:39.429Z,79.80
2023-02-06T21:10:08.353Z,80.02
2023-02-06T21:12:37.423Z,80.36
2023-02-06T21:15:06.604Z,80.05
2023-02-06T21:17:35.575Z,80.04
2023-02-06T21:20:06.351Z,79.81
2023-02-06T21:22:35.126Z,80.23
2023-02-06T21:25:04.092Z,80.03
2023-02-06T21:27:33.226Z,80.16
2023-02-06T21:30:01.982Z,80.26
2023-02-06T21:32:32.973Z,80.44
2023-02-06T21:35:01.790Z,79.98
2023-02-06T21:37:31.906Z,79.90
2023-02-06T21:40:00.795Z,80.10
2023-02-06T21:42:31.668Z,80.48
2023-02-06T21:45:00.673Z,79.92
2023-02-06T21:47:29.508Z,79.83
2023-02-06T21:49:58.421Z,80.32
2023-02-06T21:52:27.222Z,80.40
2023-02-06T21:54:56.101Z,80.49
2023-02-06T21:57:24.799Z,80.41
2023-02-06T21:59:53.593Z,80.24
2023-02-06T22:02:23.281Z,80.23
2023-02-06T22:04:52.343Z,80.11
2023-02-06T22:07:21.147Z,80.40
2023-02-06T22:09:49.993Z,80.20
2023-02-06T22:12:18.743Z,80.27
2023-02-06T22:14:47.568Z,80.25
2023-02-06T22:17:16.388Z,80.03
2023-02-06T22:19:45.210Z,80.32
2023-02-06T22:22:14.017Z,80.44
2023-02-06T22:24:45.085Z,80.22
2023-02-06T22:27:13.988Z,80.04
2023-02-06T22:29:42.943Z,80.07
2023-02-06T22:32:11.700Z,80.02
2023-02-06T22:34:40.514Z,80.32
2023-02-06T22:37:09.454Z,80.29
2023-02-06T22:39:38.313Z,79.89
2023-02-06T22:42:07.138Z,79.93
2023-02-06T22:44:36.012Z,79.94
2023-02-06T22:47:04.840Z,80.13
2023-02-06T22:49:33.580Z,80.17
2023-02-06T22:52:02.371Z,80.38
2023-02-06T22:54:31.372Z,80.51
2023-02-06T22:57:00.213Z,80.23
2023-02-06T22:59:29.683Z,80.39
2023-02-06T23:02:00.004Z,80.53
2023-02-06T23:04:31.394Z,80.37
2023-02-06T23:07:00.281Z,80.49
2023-02-06T23:09:31.972Z,80.05
2023-02-06T23:12:01.804Z,80.04
2023-02-06T23:14:32.682Z,80.17
2023-02-06T23:17:03.237Z,80.08
2023-02-06T23:19:33.097Z,80.47
2023-02-06T23:22:02.031Z,80.12
2023-02-06T23:24:30.779Z,80.32
2023-02-06T23:26:59.562Z,80.07
2023-02-06T23:29:28.427Z,80.25
2023-02-06T23:31:57.483Z,80.08
2023-02-06T23:34:26.441Z,80.01
2023-02-06T23:36:55.301Z,80.32
2023-02-06T23:39:24.180Z,80.44
2023-02-06T23:41:53.037Z,80.56
2023-02-06T23:44:21.781Z,80.56
2023-02-06T23:46:50.638Z,80.17
2023-02-06T23:49:19.428Z,80.43
2023-02-06T23:51:48.258Z,80.00
2023-02-06T23:54:17.171Z,80.19
2023-02-06T23:56:46.029Z,80.30
2023-02-06T23:59:14.893Z,80.31
